Terminal Aerodrome Forecast
Issued by NWS Wilmington, OH

Home | Current Version | Previous Version | Text Only | Print | Product List | Glossary On
Versions: 1 2 3 4 5 6 7 8 9 10 11 12 13 14 15 16 17 18 19 20 21 22 23 24 25 26 27 28 29 30 31 32
000
FTUS41 KILN 050849 AAA
TAFCVG
TAF AMD
KCVG 050849Z 0509/0612 27010KT P6SM OVC012
     FM051300 20004KT P6SM BKN012
     FM051700 VRB03KT P6SM SCT015 BKN250
     FM052100 11004KT P6SM BKN250
     FM060200 10008KT P6SM BKN080
     FM061000 09008KT P6SM -RA BKN025=

USA.gov is the U.S. government's official web portal to all federal, state and local government web resources and services.